sensor_id;sensor_type;location;lat;lon;timestamp;pressure;altitude;pressure_sealevel;temperature;humidity
6833;BME280;3454;42.654;23.378;2023-04-16T00:00:06;64184.00;;;11.75;59.48
6833;BME280;3454;42.654;23.378;2023-04-16T00:02:32;64181.47;;;11.75;59.52
6833;BME280;3454;42.654;23.378;2023-04-16T00:04:57;64185.53;;;11.81;59.87
6833;BME280;3454;42.654;23.378;2023-04-16T00:07:23;64183.22;;;11.72;59.34
6833;BME280;3454;42.654;23.378;2023-04-16T00:09:48;64180.16;;;11.71;59.01
6833;BME280;3454;42.654;23.378;2023-04-16T00:12:14;64186.41;;;11.79;58.85
6833;BME280;3454;42.654;23.378;2023-04-16T00:14:40;64195.50;;;11.86;58.38
6833;BME280;3454;42.654;23.378;2023-04-16T00:17:08;64184.00;;;11.75;58.52
6833;BME280;3454;42.654;23.378;2023-04-16T00:19:34;64186.94;;;11.80;58.62
6833;BME280;3454;42.654;23.378;2023-04-16T00:21:59;64184.53;;;11.75;58.48
6833;BME280;3454;42.654;23.378;2023-04-16T00:24:25;64173.56;;;11.65;58.26
6833;BME280;3454;42.654;23.378;2023-04-16T00:26:50;64167.75;;;11.62;58.20
6833;BME280;3454;42.654;23.378;2023-04-16T00:29:16;64161.50;;;11.54;58.78
6833;BME280;3454;42.654;23.378;2023-04-16T00:31:41;64168.84;;;11.63;59.25
6833;BME280;3454;42.654;23.378;2023-04-16T00:34:06;64166.44;;;11.59;58.40
6833;BME280;3454;42.654;23.378;2023-04-16T00:36:32;64163.16;;;11.56;58.34
6833;BME280;3454;42.654;23.378;2023-04-16T00:38:57;64158.97;;;11.54;57.98
6833;BME280;3454;42.654;23.378;2023-04-16T00:41:23;64147.13;;;11.46;57.99
6833;BME280;3454;42.654;23.378;2023-04-16T00:43:49;64147.81;;;11.42;58.08
6833;BME280;3454;42.654;23.378;2023-04-16T00:46:15;64145.84;;;11.42;57.57
6833;BME280;3454;42.654;23.378;2023-04-16T00:48:43;64130.16;;;11.30;58.12
6833;BME280;3454;42.654;23.378;2023-04-16T00:51:10;64136.28;;;11.31;59.03
6833;BME280;3454;42.654;23.378;2023-04-16T00:53:36;64141.22;;;11.36;58.33
6833;BME280;3454;42.654;23.378;2023-04-16T00:56:04;64134.09;;;11.29;59.13
6833;BME280;3454;42.654;23.378;2023-04-16T00:58:30;64136.28;;;11.31;58.42
6833;BME280;3454;42.654;23.378;2023-04-16T01:00:56;64135.22;;;11.30;58.15
6833;BME280;3454;42.654;23.378;2023-04-16T01:03:22;64126.66;;;11.25;58.45
6833;BME280;3454;42.654;23.378;2023-04-16T01:05:48;64130.84;;;11.26;58.67
6833;BME280;3454;42.654;23.378;2023-04-16T01:08:17;64118.44;;;11.17;58.90
6833;BME280;3454;42.654;23.378;2023-04-16T01:10:43;64108.25;;;11.10;58.87
6833;BME280;3454;42.654;23.378;2023-04-16T01:13:10;64107.81;;;11.05;58.92
6833;BME280;3454;42.654;23.378;2023-04-16T01:15:36;64078.81;;;10.78;59.81
6833;BME280;3454;42.654;23.378;2023-04-16T01:18:02;64079.03;;;10.81;60.41
6833;BME280;3454;42.654;23.378;2023-04-16T01:20:28;64059.66;;;10.61;59.83
6833;BME280;3454;42.654;23.378;2023-04-16T01:22:53;64060.75;;;10.62;59.88
6833;BME280;3454;42.654;23.378;2023-04-16T01:25:19;64066.78;;;10.67;59.79
6833;BME280;3454;42.654;23.378;2023-04-16T01:27:48;64052.75;;;10.57;60.41
6833;BME280;3454;42.654;23.378;2023-04-16T01:30:13;64061.84;;;10.63;60.18
6833;BME280;3454;42.654;23.378;2023-04-16T01:32:39;64057.69;;;10.61;60.30
6833;BME280;3454;42.654;23.378;2023-04-16T01:35:04;64063.69;;;10.67;59.85
6833;BME280;3454;42.654;23.378;2023-04-16T01:37:30;64069.41;;;10.74;59.75
6833;BME280;3454;42.654;23.378;2023-04-16T01:39:56;64081.00;;;10.80;59.84
6833;BME280;3454;42.654;23.378;2023-04-16T01:42:21;64087.59;;;10.86;59.58
6833;BME280;3454;42.654;23.378;2023-04-16T01:44:47;64084.28;;;10.83;59.57
6833;BME280;3454;42.654;23.378;2023-04-16T01:47:13;64074.44;;;10.74;59.80
6833;BME280;3454;42.654;23.378;2023-04-16T01:49:38;64089.56;;;10.86;60.16
6833;BME280;3454;42.654;23.378;2023-04-16T01:52:04;64078.69;;;10.83;60.43
6833;BME280;3454;42.654;23.378;2023-04-16T01:54:29;64085.06;;;10.86;60.94
6833;BME280;3454;42.654;23.378;2023-04-16T01:56:55;64082.66;;;10.82;61.18
6833;BME280;3454;42.654;23.378;2023-04-16T01:59:21;64079.34;;;10.79;61.25
6833;BME280;3454;42.654;23.378;2023-04-16T02:01:46;64077.16;;;10.77;61.99
6833;BME280;3454;42.654;23.378;2023-04-16T02:04:12;64068.41;;;10.69;63.04
6833;BME280;3454;42.654;23.378;2023-04-16T02:06:38;64059.53;;;10.65;61.35
6833;BME280;3454;42.654;23.378;2023-04-16T02:09:03;64056.38;;;10.58;61.38
6833;BME280;3454;42.654;23.378;2023-04-16T02:11:28;64051.66;;;10.56;60.92
6833;BME280;3454;42.654;23.378;2023-04-16T02:13:54;64046.75;;;10.51;61.10
6833;BME280;3454;42.654;23.378;2023-04-16T02:16:19;64036.69;;;10.40;61.75
6833;BME280;3454;42.654;23.378;2023-04-16T02:18:45;64035.03;;;10.38;62.44
6833;BME280;3454;42.654;23.378;2023-04-16T02:21:10;64027.91;;;10.32;62.39
6833;BME280;3454;42.654;23.378;2023-04-16T02:23:36;64018.06;;;10.23;63.06
6833;BME280;3454;42.654;23.378;2023-04-16T02:26:02;64018.84;;;10.26;63.78
6833;BME280;3454;42.654;23.378;2023-04-16T02:28:27;64024.41;;;10.26;65.22
6833;BME280;3454;42.654;23.378;2023-04-16T02:30:53;64029.44;;;10.38;64.54
6833;BME280;3454;42.654;23.378;2023-04-16T02:33:18;64027.03;;;10.33;65.00
6833;BME280;3454;42.654;23.378;2023-04-16T02:35:44;64036.69;;;10.40;64.80
6833;BME280;3454;42.654;23.378;2023-04-16T02:38:10;64041.28;;;10.46;64.96
6833;BME280;3454;42.654;23.378;2023-04-16T02:40:35;64042.34;;;10.47;63.89
6833;BME280;3454;42.654;23.378;2023-04-16T02:43:00;64039.63;;;10.45;64.42
6833;BME280;3454;42.654;23.378;2023-04-16T02:45:26;64036.91;;;10.42;64.11
6833;BME280;3454;42.654;23.378;2023-04-16T02:47:51;64026.81;;;10.31;64.56
6833;BME280;3454;42.654;23.378;2023-04-16T02:50:17;64038.53;;;10.44;63.42
6833;BME280;3454;42.654;23.378;2023-04-16T02:52:42;64041.06;;;10.44;64.63
6833;BME280;3454;42.654;23.378;2023-04-16T02:55:09;64043.47;;;10.48;63.18
6833;BME280;3454;42.654;23.378;2023-04-16T02:57:35;64031.75;;;10.35;63.89
6833;BME280;3454;42.654;23.378;2023-04-16T03:00:00;64031.19;;;10.35;64.10
6833;BME280;3454;42.654;23.378;2023-04-16T03:02:26;64035.56;;;10.39;64.09
6833;BME280;3454;42.654;23.378;2023-04-16T03:04:54;64042.13;;;10.45;63.51
6833;BME280;3454;42.654;23.378;2023-04-16T03:07:20;64025.72;;;10.30;63.97
6833;BME280;3454;42.654;23.378;2023-04-16T03:09:45;64026.28;;;10.30;64.32
6833;BME280;3454;42.654;23.378;2023-04-16T03:12:11;64010.28;;;10.20;64.84
6833;BME280;3454;42.654;23.378;2023-04-16T03:14:36;64023.53;;;10.28;64.45
6833;BME280;3454;42.654;23.378;2023-04-16T03:17:02;64022.66;;;10.29;65.16
6833;BME280;3454;42.654;23.378;2023-04-16T03:19:27;64017.19;;;10.24;66.39
6833;BME280;3454;42.654;23.378;2023-04-16T03:21:53;64025.41;;;10.32;66.33
6833;BME280;3454;42.654;23.378;2023-04-16T03:24:18;64035.25;;;10.41;66.23
6833;BME280;3454;42.654;23.378;2023-04-16T03:26:43;64025.72;;;10.30;65.78
6833;BME280;3454;42.654;23.378;2023-04-16T03:29:09;64027.59;;;10.34;64.80
6833;BME280;3454;42.654;23.378;2023-04-16T03:31:34;64035.47;;;10.43;65.23
6833;BME280;3454;42.654;23.378;2023-04-16T03:34:00;64033.59;;;10.39;65.17
6833;BME280;3454;42.654;23.378;2023-04-16T03:36:25;64034.47;;;10.38;64.98
6833;BME280;3454;42.654;23.378;2023-04-16T03:38:54;64060.19;;;10.61;62.42
6833;BME280;3454;42.654;23.378;2023-04-16T03:41:19;64041.47;;;10.49;62.41
6833;BME280;3454;42.654;23.378;2023-04-16T03:43:44;64049.47;;;10.54;62.05
6833;BME280;3454;42.654;23.378;2023-04-16T03:46:10;64051.66;;;10.56;63.24
6833;BME280;3454;42.654;23.378;2023-04-16T03:48:35;64043.78;;;10.46;64.58
6833;BME280;3454;42.654;23.378;2023-04-16T03:51:01;64062.63;;;10.66;63.21
6833;BME280;3454;42.654;23.378;2023-04-16T03:53:27;64068.84;;;10.74;63.19
6833;BME280;3454;42.654;23.378;2023-04-16T03:55:52;64064.81;;;10.68;63.42
6833;BME280;3454;42.654;23.378;2023-04-16T03:58:18;64070.25;;;10.73;63.91
6833;BME280;3454;42.654;23.378;2023-04-16T04:00:44;64066.09;;;10.71;62.96
6833;BME280;3454;42.654;23.378;2023-04-16T04:03:10;64059.88;;;10.63;62.28
6833;BME280;3454;42.654;23.378;2023-04-16T04:05:36;64050.34;;;10.52;63.12
6833;BME280;3454;42.654;23.378;2023-04-16T04:08:02;64045.66;;;10.50;62.73
6833;BME280;3454;42.654;23.378;2023-04-16T04:10:35;64012.28;;;10.20;63.84
6833;BME280;3454;42.654;23.378;2023-04-16T04:13:05;64010.63;;;10.18;64.18
6833;BME280;3454;42.654;23.378;2023-04-16T04:15:30;64005.47;;;10.11;64.74
6833;BME280;3454;42.654;23.378;2023-04-16T04:18:03;63999.97;;;10.06;64.95
6833;BME280;3454;42.654;23.378;2023-04-16T04:20:28;63996.16;;;10.02;64.96
6833;BME280;3454;42.654;23.378;2023-04-16T04:22:54;63986.31;;;9.93;65.55
6833;BME280;3454;42.654;23.378;2023-04-16T04:25:19;63990.16;;;9.97;65.66
6833;BME280;3454;42.654;23.378;2023-04-16T04:27:45;63981.81;;;9.94;65.94
6833;BME280;3454;42.654;23.378;2023-04-16T04:30:11;63995.84;;;10.04;65.45
6833;BME280;3454;42.654;23.378;2023-04-16T04:32:36;63984.88;;;9.94;66.40
6833;BME280;3454;42.654;23.378;2023-04-16T04:35:02;63983.81;;;9.93;65.90
6833;BME280;3454;42.654;23.378;2023-04-16T04:37:28;63994.75;;;10.03;66.34
6833;BME280;3454;42.654;23.378;2023-04-16T04:39:53;63996.94;;;10.05;66.36
6833;BME280;3454;42.654;23.378;2023-04-16T04:42:19;63995.50;;;10.06;67.04
6833;BME280;3454;42.654;23.378;2023-04-16T04:44:45;64033.59;;;10.39;66.47
6833;BME280;3454;42.654;23.378;2023-04-16T04:47:11;64052.56;;;10.54;66.44
6833;BME280;3454;42.654;23.378;2023-04-16T04:49:37;64073.34;;;10.73;65.97
6833;BME280;3454;42.654;23.378;2023-04-16T04:52:02;64103.66;;;11.04;65.70
6833;BME280;3454;42.654;23.378;2023-04-16T04:54:29;64109.91;;;11.12;65.31
6833;BME280;3454;42.654;23.378;2023-04-16T04:56:55;64109.34;;;11.11;66.04
6833;BME280;3454;42.654;23.378;2023-04-16T04:59:22;64126.44;;;11.22;65.84
6833;BME280;3454;42.654;23.378;2023-04-16T05:01:48;64134.09;;;11.29;66.18
6833;BME280;3454;42.654;23.378;2023-04-16T05:04:14;64140.91;;;11.38;65.53
6833;BME280;3454;42.654;23.378;2023-04-16T05:06:39;64117.34;;;11.16;64.40
6833;BME280;3454;42.654;23.378;2023-04-16T05:09:05;64106.19;;;11.04;65.39
6833;BME280;3454;42.654;23.378;2023-04-16T05:11:35;64094.69;;;10.93;64.85
6833;BME280;3454;42.654;23.378;2023-04-16T05:14:01;64098.72;;;10.99;65.42
6833;BME280;3454;42.654;23.378;2023-04-16T05:16:26;64092.16;;;10.93;65.61
6833;BME280;3454;42.654;23.378;2023-04-16T05:18:51;64071.03;;;10.76;65.73
6833;BME280;3454;42.654;23.378;2023-04-16T05:21:17;64052.75;;;10.57;67.04
6833;BME280;3454;42.654;23.378;2023-04-16T05:23:42;64072.47;;;10.75;66.96
6833;BME280;3454;42.654;23.378;2023-04-16T05:26:08;64087.59;;;10.86;66.13
6833;BME280;3454;42.654;23.378;2023-04-16T05:28:33;64083.41;;;10.85;66.20
6833;BME280;3454;42.654;23.378;2023-04-16T05:30:58;64088.56;;;10.92;66.22
6833;BME280;3454;42.654;23.378;2023-04-16T05:33:24;64102.91;;;11.01;66.54
6833;BME280;3454;42.654;23.378;2023-04-16T05:35:50;64124.25;;;11.20;67.08
6833;BME280;3454;42.654;23.378;2023-04-16T05:38:15;64141.78;;;11.36;65.56
6833;BME280;3454;42.654;23.378;2023-04-16T05:40:41;64128.31;;;11.26;65.60
6833;BME280;3454;42.654;23.378;2023-04-16T05:43:07;64129.19;;;11.25;66.09
6833;BME280;3454;42.654;23.378;2023-04-16T05:45:32;64115.72;;;11.15;66.08
6833;BME280;3454;42.654;23.378;2023-04-16T05:48:04;64135.75;;;11.31;66.06
6833;BME280;3454;42.654;23.378;2023-04-16T05:50:29;64169.19;;;11.61;65.41
6833;BME280;3454;42.654;23.378;2023-04-16T05:52:55;64184.53;;;11.75;64.36
6833;BME280;3454;42.654;23.378;2023-04-16T05:55:20;64180.91;;;11.74;63.90
6833;BME280;3454;42.654;23.378;2023-04-16T05:57:46;64193.31;;;11.84;65.18
6833;BME280;3454;42.654;23.378;2023-04-16T06:00:12;64189.69;;;11.82;64.65
6833;BME280;3454;42.654;23.378;2023-04-16T06:02:38;64199.00;;;11.91;64.63
6833;BME280;3454;42.654;23.378;2023-04-16T06:05:03;64219.63;;;12.08;64.74
6833;BME280;3454;42.654;23.378;2023-04-16T06:07:29;64219.28;;;12.10;63.77
6833;BME280;3454;42.654;23.378;2023-04-16T06:09:55;64231.66;;;12.19;63.68
6833;BME280;3454;42.654;23.378;2023-04-16T06:12:20;64308.44;;;12.89;66.22
6833;BME280;3454;42.654;23.378;2023-04-16T06:14:45;64294.59;;;12.81;62.15
6833;BME280;3454;42.654;23.378;2023-04-16T06:17:11;64290.56;;;12.75;62.00
6833;BME280;3454;42.654;23.378;2023-04-16T06:19:36;64285.41;;;12.68;62.49
6833;BME280;3454;42.654;23.378;2023-04-16T06:22:02;64264.44;;;12.53;61.45
6833;BME280;3454;42.654;23.378;2023-04-16T06:24:28;64254.38;;;12.42;62.29
6833;BME280;3454;42.654;23.378;2023-04-16T06:26:54;64251.06;;;12.39;62.75
6833;BME280;3454;42.654;23.378;2023-04-16T06:29:19;64262.38;;;12.47;63.82
6833;BME280;3454;42.654;23.378;2023-04-16T06:31:45;64267.88;;;12.52;63.05
6833;BME280;3454;42.654;23.378;2023-04-16T06:34:10;64283.75;;;12.66;63.12
6833;BME280;3454;42.654;23.378;2023-04-16T06:36:36;64290.34;;;12.73;62.16
6833;BME280;3454;42.654;23.378;2023-04-16T06:39:01;64286.94;;;12.74;63.53
6833;BME280;3454;42.654;23.378;2023-04-16T06:41:27;64263.16;;;12.50;63.52
6833;BME280;3454;42.654;23.378;2023-04-16T06:43:52;64271.91;;;12.58;63.19
6833;BME280;3454;42.654;23.378;2023-04-16T06:46:18;64272.25;;;12.56;63.34
6833;BME280;3454;42.654;23.378;2023-04-16T06:48:43;64300.78;;;12.82;62.04
6833;BME280;3454;42.654;23.378;2023-04-16T06:51:09;64318.88;;;12.99;61.14
6833;BME280;3454;42.654;23.378;2023-04-16T06:53:36;64304.81;;;12.88;61.44
6833;BME280;3454;42.654;23.378;2023-04-16T06:56:01;64324.03;;;13.06;61.33
6833;BME280;3454;42.654;23.378;2023-04-16T06:58:27;64346.88;;;13.24;60.65
6833;BME280;3454;42.654;23.378;2023-04-16T07:00:52;64355.66;;;13.32;60.74
6833;BME280;3454;42.654;23.378;2023-04-16T07:03:18;64348.75;;;13.28;60.36
6833;BME280;3454;42.654;23.378;2023-04-16T07:05:43;64390.13;;;13.69;60.56
6833;BME280;3454;42.654;23.378;2023-04-16T07:08:09;64335.56;;;13.16;60.00
6833;BME280;3454;42.654;23.378;2023-04-16T07:10:34;64348.41;;;13.30;59.92
6833;BME280;3454;42.654;23.378;2023-04-16T07:13:00;64362.13;;;13.43;59.88
6833;BME280;3454;42.654;23.378;2023-04-16T07:15:26;64389.91;;;13.66;59.69
6833;BME280;3454;42.654;23.378;2023-04-16T07:17:51;64388.25;;;13.65;61.17
6833;BME280;3454;42.654;23.378;2023-04-16T07:20:17;64382.97;;;13.62;61.86
6833;BME280;3454;42.654;23.378;2023-04-16T07:22:42;64368.50;;;13.46;60.21
6833;BME280;3454;42.654;23.378;2023-04-16T07:25:08;64325.69;;;13.07;60.15
6833;BME280;3454;42.654;23.378;2023-04-16T07:27:33;64344.00;;;13.26;60.14
6833;BME280;3454;42.654;23.378;2023-04-16T07:29:59;64373.44;;;13.51;60.73
6833;BME280;3454;42.654;23.378;2023-04-16T07:32:25;64368.16;;;13.48;60.53
6833;BME280;3454;42.654;23.378;2023-04-16T07:34:50;64386.59;;;13.63;60.76
6833;BME280;3454;42.654;23.378;2023-04-16T07:37:16;64408.56;;;13.83;60.54
6833;BME280;3454;42.654;23.378;2023-04-16T07:39:41;64442.06;;;14.14;59.37
6833;BME280;3454;42.654;23.378;2023-04-16T07:42:07;64454.94;;;14.28;59.18
6833;BME280;3454;42.654;23.378;2023-04-16T07:44:32;64467.34;;;14.37;57.19
6833;BME280;3454;42.654;23.378;2023-04-16T07:46:57;64482.19;;;14.51;59.49
6833;BME280;3454;42.654;23.378;2023-04-16T07:49:23;64428.88;;;14.02;59.48
6833;BME280;3454;42.654;23.378;2023-04-16T07:51:48;64450.31;;;14.21;58.51
6833;BME280;3454;42.654;23.378;2023-04-16T07:54:14;64435.13;;;14.10;59.60
6833;BME280;3454;42.654;23.378;2023-04-16T07:56:40;64462.63;;;14.35;58.84
6833;BME280;3454;42.654;23.378;2023-04-16T07:59:05;64500.31;;;14.67;59.07
6833;BME280;3454;42.654;23.378;2023-04-16T08:01:31;64503.63;;;14.70;58.28
6833;BME280;3454;42.654;23.378;2023-04-16T08:03:57;64486.56;;;14.55;59.03
6833;BME280;3454;42.654;23.378;2023-04-16T08:06:22;64504.72;;;14.71;59.32
6833;BME280;3454;42.654;23.378;2023-04-16T08:08:48;64533.28;;;14.97;60.55
6833;BME280;3454;42.654;23.378;2023-04-16T08:11:13;64569.59;;;15.31;61.29
6833;BME280;3454;42.654;23.378;2023-04-16T08:13:39;64588.63;;;15.46;60.84
6833;BME280;3454;42.654;23.378;2023-04-16T08:16:05;64623.16;;;15.82;58.74
6833;BME280;3454;42.654;23.378;2023-04-16T08:18:31;64713.75;;;16.62;67.09
6833;BME280;3454;42.654;23.378;2023-04-16T08:20:56;64694.13;;;16.47;56.02
6833;BME280;3454;42.654;23.378;2023-04-16T08:23:21;64691.59;;;16.47;53.85
6833;BME280;3454;42.654;23.378;2023-04-16T08:25:47;64683.69;;;16.37;55.26
6833;BME280;3454;42.654;23.378;2023-04-16T08:28:13;64656.50;;;16.10;56.68
6833;BME280;3454;42.654;23.378;2023-04-16T08:30:38;64680.19;;;16.32;55.59
6833;BME280;3454;42.654;23.378;2023-04-16T08:33:04;64690.84;;;16.44;54.37
6833;BME280;3454;42.654;23.378;2023-04-16T08:35:30;64668.28;;;16.23;53.13
6833;BME280;3454;42.654;23.378;2023-04-16T08:37:55;64660.56;;;16.16;52.09
6833;BME280;3454;42.654;23.378;2023-04-16T08:40:24;64687.53;;;16.41;52.62
6833;BME280;3454;42.654;23.378;2023-04-16T08:42:56;64722.78;;;16.73;51.57
6833;BME280;3454;42.654;23.378;2023-04-16T08:45:25;64728.66;;;16.76;53.56
6833;BME280;3454;42.654;23.378;2023-04-16T08:47:51;64737.31;;;16.89;52.39
6833;BME280;3454;42.654;23.378;2023-04-16T08:50:22;64770.16;;;17.16;53.04
6833;BME280;3454;42.654;23.378;2023-04-16T08:53:17;64788.34;;;17.33;53.54
6833;BME280;3454;42.654;23.378;2023-04-16T08:55:48;64799.69;;;17.41;52.53
6833;BME280;3454;42.654;23.378;2023-04-16T08:58:18;64785.91;;;17.28;53.04
6833;BME280;3454;42.654;23.378;2023-04-16T09:00:45;64785.03;;;17.30;52.40
6833;BME280;3454;42.654;23.378;2023-04-16T09:03:11;64758.03;;;17.05;50.88
6833;BME280;3454;42.654;23.378;2023-04-16T09:05:37;64722.78;;;16.73;50.33
6833;BME280;3454;42.654;23.378;2023-04-16T09:08:04;64712.34;;;16.63;51.47
6833;BME280;3454;42.654;23.378;2023-04-16T09:10:31;64740.97;;;16.90;51.20
6833;BME280;3454;42.654;23.378;2023-04-16T09:12:57;64770.72;;;17.17;51.36
6833;BME280;3454;42.654;23.378;2023-04-16T09:15:23;64818.66;;;17.60;49.06
6833;BME280;3454;42.654;23.378;2023-04-16T09:17:52;64852.81;;;17.92;47.56
6833;BME280;3454;42.654;23.378;2023-04-16T09:20:18;64877.97;;;18.12;49.27
6833;BME280;3454;42.654;23.378;2023-04-16T09:22:45;64867.72;;;18.05;47.22
6833;BME280;3454;42.654;23.378;2023-04-16T09:25:11;64841.25;;;17.81;47.18
6833;BME280;3454;42.654;23.378;2023-04-16T09:27:37;64885.91;;;18.22;49.93
6833;BME280;3454;42.654;23.378;2023-04-16T09:30:23;64946.59;;;18.77;49.68
6833;BME280;3454;42.654;23.378;2023-04-16T09:32:50;64984.66;;;19.12;48.30
6833;BME280;3454;42.654;23.378;2023-04-16T09:35:18;64922.31;;;18.55;48.29
6833;BME280;3454;42.654;23.378;2023-04-16T09:37:54;64955.19;;;18.83;47.07
6833;BME280;3454;42.654;23.378;2023-04-16T09:40:24;64950.44;;;18.81;47.02
6833;BME280;3454;42.654;23.378;2023-04-16T09:42:51;64949.34;;;18.80;48.53
6833;BME280;3454;42.654;23.378;2023-04-16T09:45:16;64975.84;;;19.04;46.48
6833;BME280;3454;42.654;23.378;2023-04-16T09:47:43;64961.47;;;18.91;46.98
6833;BME280;3454;42.654;23.378;2023-04-16T09:50:13;64935.75;;;18.70;45.87
6833;BME280;3454;42.654;23.378;2023-04-16T09:52:38;64974.19;;;19.02;47.14
6833;BME280;3454;42.654;23.378;2023-04-16T09:55:04;65023.88;;;19.48;45.51
6833;BME280;3454;42.654;23.378;2023-04-16T09:57:30;65022.22;;;19.46;44.63
6833;BME280;3454;42.654;23.378;2023-04-16T10:00:04;64994.03;;;19.20;45.47
6833;BME280;3454;42.654;23.378;2023-04-16T10:02:30;65027.75;;;19.51;44.02
6833;BME280;3454;42.654;23.378;2023-04-16T10:05:00;65084.06;;;20.02;43.77
6833;BME280;3454;42.654;23.378;2023-04-16T10:07:32;65062.88;;;19.81;43.34
6833;BME280;3454;42.654;23.378;2023-04-16T10:09:58;64972.31;;;18.98;43.23
6833;BME280;3454;42.654;23.378;2023-04-16T10:12:24;64913.84;;;18.45;44.43
6833;BME280;3454;42.654;23.378;2023-04-16T10:14:49;64948.78;;;18.79;44.52
6833;BME280;3454;42.654;23.378;2023-04-16T10:17:16;64973.06;;;19.01;45.23
6833;BME280;3454;42.654;23.378;2023-04-16T10:19:42;64958.19;;;18.88;44.66
6833;BME280;3454;42.654;23.378;2023-04-16T10:22:08;64935.00;;;18.67;44.50
6833;BME280;3454;42.654;23.378;2023-04-16T10:24:34;64951.56;;;18.82;43.38
6833;BME280;3454;42.654;23.378;2023-04-16T10:27:00;64944.38;;;18.75;43.68
6833;BME280;3454;42.654;23.378;2023-04-16T10:29:27;64976.38;;;19.04;44.79
6833;BME280;3454;42.654;23.378;2023-04-16T10:31:54;64960.59;;;18.92;43.61
6833;BME280;3454;42.654;23.378;2023-04-16T10:34:22;64986.53;;;19.16;44.09
6833;BME280;3454;42.654;23.378;2023-04-16T10:36:49;65032.91;;;19.58;41.50
6833;BME280;3454;42.654;23.378;2023-04-16T10:39:19;65094.00;;;20.12;43.09
6833;BME280;3454;42.654;23.378;2023-04-16T10:41:45;65065.81;;;19.86;42.17
6833;BME280;3454;42.654;23.378;2023-04-16T10:44:11;65111.16;;;20.27;43.00
6833;BME280;3454;42.654;23.378;2023-04-16T10:46:40;65171.94;;;20.82;42.04
6833;BME280;3454;42.654;23.378;2023-04-16T10:49:32;65164.75;;;20.76;39.29
6833;BME280;3454;42.654;23.378;2023-04-16T10:52:06;65182.44;;;20.92;40.98
6833;BME280;3454;42.654;23.378;2023-04-16T10:54:34;65211.19;;;21.18;40.94
6833;BME280;3454;42.654;23.378;2023-04-16T10:57:06;65241.41;;;21.43;39.13
6833;BME280;3454;42.654;23.378;2023-04-16T10:59:34;65281.66;;;21.85;38.03
6833;BME280;3454;42.654;23.378;2023-04-16T11:02:01;65241.03;;;21.45;38.53
6833;BME280;3454;42.654;23.378;2023-04-16T11:04:37;65213.41;;;21.20;38.54
6833;BME280;3454;42.654;23.378;2023-04-16T11:09:54;65196.47;;;21.07;39.91
6833;BME280;3454;42.654;23.378;2023-04-16T11:12:24;65118.88;;;20.34;40.20
6833;BME280;3454;42.654;23.378;2023-04-16T11:15:06;65079.06;;;19.98;40.84
6833;BME280;3454;42.654;23.378;2023-04-16T11:17:42;65105.06;;;20.22;39.51
6833;BME280;3454;42.654;23.378;2023-04-16T11:20:16;65090.13;;;20.08;40.52
6833;BME280;3454;42.654;23.378;2023-04-16T11:22:42;65072.44;;;19.92;41.82
6833;BME280;3454;42.654;23.378;2023-04-16T11:25:10;65105.06;;;20.22;43.49
6833;BME280;3454;42.654;23.378;2023-04-16T11:27:36;65157.00;;;20.69;40.43
6833;BME280;3454;42.654;23.378;2023-04-16T11:30:04;65149.28;;;20.62;40.19
6833;BME280;3454;42.654;23.378;2023-04-16T11:32:34;65111.69;;;20.28;40.42
6833;BME280;3454;42.654;23.378;2023-04-16T11:35:01;65111.16;;;20.27;41.41
6833;BME280;3454;42.654;23.378;2023-04-16T11:37:36;65066.38;;;19.86;42.05
6833;BME280;3454;42.654;23.378;2023-04-16T11:40:02;65050.38;;;19.72;42.78
6833;BME280;3454;42.654;23.378;2023-04-16T11:42:32;65054.25;;;19.75;42.72
6833;BME280;3454;42.654;23.378;2023-04-16T11:44:58;65075.22;;;19.94;43.77
6833;BME280;3454;42.654;23.378;2023-04-16T11:47:29;65050.91;;;19.72;42.52
6833;BME280;3454;42.654;23.378;2023-04-16T11:49:56;65031.81;;;19.57;41.19
6833;BME280;3454;42.654;23.378;2023-04-16T11:52:29;65050.91;;;19.72;42.47
6833;BME280;3454;42.654;23.378;2023-04-16T11:54:58;65059.75;;;19.80;41.53
6833;BME280;3454;42.654;23.378;2023-04-16T11:57:28;65092.34;;;20.10;40.46
6833;BME280;3454;42.654;23.378;2023-04-16T11:59:54;65065.81;;;19.86;40.63
6833;BME280;3454;42.654;23.378;2023-04-16T12:02:39;65076.31;;;19.95;40.58
6833;BME280;3454;42.654;23.378;2023-04-16T12:07:58;65126.59;;;20.41;40.01
6833;BME280;3454;42.654;23.378;2023-04-16T12:10:23;65116.13;;;20.32;40.66
6833;BME280;3454;42.654;23.378;2023-04-16T12:12:49;65124.59;;;20.42;40.28
6833;BME280;3454;42.654;23.378;2023-04-16T12:15:16;65132.88;;;20.49;39.98
6833;BME280;3454;42.654;23.378;2023-04-16T12:17:42;65144.63;;;20.55;40.53
6833;BME280;3454;42.654;23.378;2023-04-16T12:20:14;65132.69;;;20.47;40.00
6833;BME280;3454;42.654;23.378;2023-04-16T12:22:45;65124.97;;;20.40;41.52
6833;BME280;3454;42.654;23.378;2023-04-16T12:25:13;65062.53;;;19.83;41.89
6833;BME280;3454;42.654;23.378;2023-04-16T12:30:13;64992.59;;;19.21;42.09
6833;BME280;3454;42.654;23.378;2023-04-16T12:32:41;65011.16;;;19.36;41.89
6833;BME280;3454;42.654;23.378;2023-04-16T12:35:08;65013.38;;;19.38;41.44
6833;BME280;3454;42.654;23.378;2023-04-16T12:37:34;64981.00;;;19.11;42.21
6833;BME280;3454;42.654;23.378;2023-04-16T12:40:00;64964.25;;;18.93;42.63
6833;BME280;3454;42.654;23.378;2023-04-16T12:42:26;64944.38;;;18.75;44.41
6833;BME280;3454;42.654;23.378;2023-04-16T12:44:51;64908.50;;;18.42;44.08
6833;BME280;3454;42.654;23.378;2023-04-16T12:47:17;64904.44;;;18.36;45.10
6833;BME280;3454;42.654;23.378;2023-04-16T12:49:43;64877.63;;;18.14;45.11
6833;BME280;3454;42.654;23.378;2023-04-16T12:52:09;64847.31;;;17.87;45.97
6833;BME280;3454;42.654;23.378;2023-04-16T12:54:34;64835.72;;;17.76;45.83
6833;BME280;3454;42.654;23.378;2023-04-16T12:57:00;64857.22;;;17.96;46.67
6833;BME280;3454;42.654;23.378;2023-04-16T12:59:25;64823.63;;;17.65;47.28
6833;BME280;3454;42.654;23.378;2023-04-16T13:01:51;64807.41;;;17.48;48.02
6833;BME280;3454;42.654;23.378;2023-04-16T13:04:16;64803.22;;;17.46;47.82
6833;BME280;3454;42.654;23.378;2023-04-16T13:06:43;64777.50;;;17.25;48.43
6833;BME280;3454;42.654;23.378;2023-04-16T13:09:10;64745.38;;;16.94;49.33
6833;BME280;3454;42.654;23.378;2023-04-16T13:11:36;64756.38;;;17.04;48.31
6833;BME280;3454;42.654;23.378;2023-04-16T13:14:01;64767.41;;;17.14;48.94